Time;durP1;ratioP1;P1;durP2;ratioP2;P2;SDS_P1;SDS_P2;PMS_P1;PMS_P2;Temp;Humidity;BMP_temperature;BMP_pressure;BME280_temperature;BME280_humidity;BME280_pressure;Samples;Min_cycle;Max_cycle;Signal;HPM_P1;HPM_P2
2022/08/23 00:01:07;;;;;;;5.95;4.50;;;;;;;18.45;66.37;101258.06;5058485;28;20031;-76
2022/08/23 00:03:33;;;;;;;7.20;4.22;;;;;;;18.40;66.28;101257.50;5055971;28;20078;-76
2022/08/23 00:05:58;;;;;;;9.00;4.60;;;;;;;18.37;67.18;101260.28;5059497;28;20103;-76
2022/08/23 00:08:23;;;;;;;8.18;4.90;;;;;;;18.29;66.69;101258.03;5059027;28;21010;-76
2022/08/23 00:10:49;;;;;;;8.30;5.13;;;;;;;18.29;66.54;101256.25;5053628;28;20068;-76
2022/08/23 00:13:14;;;;;;;9.07;4.90;;;;;;;18.26;65.90;101260.81;5057564;28;20416;-74
2022/08/23 00:15:40;;;;;;;7.88;4.88;;;;;;;18.25;66.71;101261.75;5059358;28;20033;-74
2022/08/23 00:18:05;;;;;;;5.88;4.50;;;;;;;18.24;66.53;101257.41;5056512;28;20032;-74
2022/08/23 00:20:30;;;;;;;9.25;4.82;;;;;;;18.18;66.59;101261.22;5055000;28;20041;-74
2022/08/23 00:22:56;;;;;;;7.50;4.95;;;;;;;18.12;67.88;101256.25;5039837;28;20403;-74
2022/08/23 00:25:21;;;;;;;8.30;4.85;;;;;;;18.04;68.26;101251.38;5057878;28;20036;-76
2022/08/23 00:27:46;;;;;;;8.13;4.93;;;;;;;18.01;67.99;101248.94;5062198;28;20032;-74
2022/08/23 00:30:13;;;;;;;8.18;5.75;;;;;;;17.95;68.45;101255.28;5064058;28;20503;-74
2022/08/23 00:32:39;;;;;;;8.63;5.50;;;;;;;17.89;67.78;101251.19;5058273;28;20104;-74
2022/08/23 00:35:06;;;;;;;6.95;4.85;;;;;;;17.88;68.10;101248.66;5058680;28;20103;-74
2022/08/23 00:37:32;;;;;;;8.60;5.10;;;;;;;17.84;67.76;101253.22;5056654;28;20479;-74
2022/08/23 00:39:58;;;;;;;9.48;5.03;;;;;;;17.81;68.68;101255.13;5045978;28;20055;-73
2022/08/23 00:48:22;;;;;;;7.38;4.82;;;;;;;17.77;68.62;101256.22;5057570;28;20048;-73
2022/08/23 00:50:54;;;;;;;8.00;4.78;;;;;;;17.73;68.16;101256.38;5059945;28;20028;-73
2022/08/23 00:53:24;;;;;;;8.13;5.20;;;;;;;17.71;68.52;101258.25;5055812;28;20021;-74
2022/08/23 00:55:53;;;;;;;7.88;5.00;;;;;;;17.69;68.57;101259.22;5056947;28;20021;-74
2022/08/23 00:58:20;;;;;;;8.35;5.30;;;;;;;17.66;68.50;101254.97;5062782;28;20036;-73
2022/08/23 01:00:48;;;;;;;8.25;5.00;;;;;;;17.65;68.53;101253.28;5060065;28;20093;-74
2022/08/23 01:03:15;;;;;;;8.63;5.45;;;;;;;17.63;68.44;101256.91;5042435;28;20087;-74
2022/08/23 01:05:48;;;;;;;8.57;5.32;;;;;;;17.61;68.61;101259.59;5057292;28;20036;-73
2022/08/23 01:08:13;;;;;;;9.15;5.97;;;;;;;17.58;70.12;101262.41;5058172;28;20078;-73
2022/08/23 01:10:43;;;;;;;8.57;5.45;;;;;;;17.56;69.52;101264.25;5060795;28;20414;-74
2022/08/23 01:13:16;;;;;;;8.73;5.05;;;;;;;17.53;69.02;101267.88;5059337;28;20032;-73
2022/08/23 01:15:49;;;;;;;6.38;5.22;;;;;;;17.54;68.79;101269.56;5057384;28;20105;-73
2022/08/23 01:18:19;;;;;;;8.05;5.63;;;;;;;17.53;69.74;101269.66;5059279;28;20093;-74
2022/08/23 01:20:54;;;;;;;7.17;5.53;;;;;;;17.49;69.47;101265.47;5058154;28;20033;-73
2022/08/23 01:23:28;;;;;;;7.90;5.75;;;;;;;17.48;69.62;101266.38;5060053;28;20063;-73
2022/08/23 01:25:54;;;;;;;8.82;5.63;;;;;;;17.44;71.13;101256.00;5066673;28;20036;-74
2022/08/23 01:28:19;;;;;;;7.72;5.45;;;;;;;17.45;71.05;101262.13;5067436;28;20025;-74
2022/08/23 01:30:47;;;;;;;8.25;5.13;;;;;;;17.43;71.19;101267.47;5062160;28;20089;-73
2022/08/23 01:33:13;;;;;;;7.90;6.00;;;;;;;17.41;70.76;101264.06;5058961;28;20021;-74
2022/08/23 01:35:43;;;;;;;11.93;6.13;;;;;;;17.38;70.87;101260.72;5060294;28;20353;-74
2022/08/23 01:38:10;;;;;;;8.00;6.20;;;;;;;17.34;70.95;101260.03;5057305;28;20385;-74
2022/08/23 01:40:37;;;;;;;8.18;6.20;;;;;;;17.33;69.88;101253.06;5062168;28;20021;-73
2022/08/23 01:43:03;;;;;;;8.02;6.45;;;;;;;17.29;70.44;101259.38;5061328;28;20025;-74
2022/08/23 01:45:29;;;;;;;10.80;6.40;;;;;;;17.29;70.70;101254.13;5060396;28;20028;-73
2022/08/23 01:47:56;;;;;;;8.93;6.15;;;;;;;17.28;71.04;101268.19;5059715;28;20032;-73
2022/08/23 01:50:22;;;;;;;8.82;6.40;;;;;;;17.27;70.61;101258.59;5060867;28;20132;-73
2022/08/23 01:52:47;;;;;;;9.40;5.90;;;;;;;17.24;71.03;101259.59;5059660;28;20096;-74
2022/08/23 01:55:13;;;;;;;8.80;5.55;;;;;;;17.24;71.14;101258.75;5061404;28;20031;-73
2022/08/23 01:57:41;;;;;;;10.27;6.15;;;;;;;17.20;71.66;101257.19;5058351;28;20494;-73
2022/08/23 02:00:07;;;;;;;7.65;6.03;;;;;;;17.15;71.75;101254.78;5057144;28;20088;-73
2022/08/23 02:02:32;;;;;;;9.80;6.00;;;;;;;17.13;71.61;101259.25;5057628;28;20476;-73
2022/08/23 02:04:58;;;;;;;8.18;5.85;;;;;;;17.12;72.66;101261.03;5060051;28;20020;-73
2022/08/23 02:07:27;;;;;;;12.07;6.38;;;;;;;17.08;71.36;101259.44;5057113;28;20024;-74
2022/08/23 02:09:54;;;;;;;9.65;6.35;;;;;;;17.05;71.68;101259.63;5063181;28;20451;-74
2022/08/23 02:12:20;;;;;;;10.80;6.10;;;;;;;17.03;72.04;101261.47;5060366;28;20051;-73
2022/08/23 02:14:46;;;;;;;7.13;5.43;;;;;;;17.04;72.46;101257.91;5055025;28;20384;-73
2022/08/23 02:17:11;;;;;;;9.50;5.57;;;;;;;17.01;72.40;101258.06;5060762;28;20032;-73
2022/08/23 02:19:38;;;;;;;7.82;5.88;;;;;;;16.98;72.51;101255.56;5058615;28;20387;-74
2022/08/23 02:22:05;;;;;;;8.45;5.75;;;;;;;16.95;72.50;101261.81;5058137;28;20463;-73
2022/08/23 02:24:31;;;;;;;11.80;6.25;;;;;;;16.94;72.67;101260.09;5056640;28;20064;-73
2022/08/23 02:27:01;;;;;;;8.18;4.95;;;;;;;16.95;72.25;101258.31;5062041;28;20060;-74
2022/08/23 02:29:30;;;;;;;7.45;5.80;;;;;;;16.93;71.96;101261.00;5059263;28;20021;-74
2022/08/23 02:31:57;;;;;;;8.68;5.57;;;;;;;16.87;71.71;101260.44;5060237;28;20419;-74
2022/08/23 02:34:22;;;;;;;10.88;5.10;;;;;;;16.84;71.70;101261.41;5061968;28;20035;-74
2022/08/23 02:36:48;;;;;;;9.77;4.88;;;;;;;16.80;72.00;101263.31;5061288;28;20017;-73
2022/08/23 02:39:16;;;;;;;6.97;4.70;;;;;;;16.78;71.75;101272.22;5062091;28;20068;-73
2022/08/23 02:41:41;;;;;;;8.70;5.05;;;;;;;16.78;71.71;101261.69;5059797;28;20024;-73
2022/08/23 02:44:07;;;;;;;9.30;5.50;;;;;;;16.76;71.69;101272.25;5056242;28;20039;-73
2022/08/23 02:46:32;;;;;;;7.88;5.72;;;;;;;16.76;71.88;101269.63;5059833;28;20036;-73
2022/08/23 02:48:58;;;;;;;9.85;5.85;;;;;;;16.78;71.75;101265.16;5060389;28;20131;-73
2022/08/23 02:51:23;;;;;;;11.27;5.93;;;;;;;16.81;71.70;101277.34;5061076;28;20097;-73
2022/08/23 02:53:48;;;;;;;10.23;6.20;;;;;;;16.82;71.53;101282.50;5055872;28;20051;-73
2022/08/23 02:56:14;;;;;;;10.43;6.30;;;;;;;16.82;71.08;101279.88;5061729;28;20032;-73
2022/08/23 02:58:40;;;;;;;9.32;6.25;;;;;;;16.84;71.25;101283.28;5060575;28;20467;-73
2022/08/23 03:01:12;;;;;;;9.38;6.20;;;;;;;16.83;70.95;101283.34;5055927;28;20130;-74
2022/08/23 03:03:38;;;;;;;7.72;5.85;;;;;;;16.82;70.99;101285.13;5055201;28;20378;-73
2022/08/23 03:06:03;;;;;;;8.80;5.90;;;;;;;16.80;70.83;101278.25;5054685;28;20464;-73
2022/08/23 03:08:28;;;;;;;7.97;5.70;;;;;;;16.80;72.08;101289.59;5055125;28;20021;-73
2022/08/23 03:10:54;;;;;;;8.68;6.03;;;;;;;16.81;71.38;101291.31;5057552;28;20419;-73
2022/08/23 03:13:19;;;;;;;8.30;5.75;;;;;;;16.78;71.24;101294.06;5058815;28;20045;-73
2022/08/23 03:15:44;;;;;;;8.10;6.07;;;;;;;16.73;71.13;101293.44;5058921;28;20124;-73
2022/08/23 03:18:11;;;;;;;10.70;6.03;;;;;;;16.71;71.42;101292.66;5059557;28;20411;-73
2022/08/23 03:20:38;;;;;;;12.55;6.30;;;;;;;16.67;71.54;101291.91;5056580;28;20052;-73
2022/08/23 03:23:03;;;;;;;8.38;5.82;;;;;;;16.63;71.69;101300.88;5053668;28;20068;-76
2022/08/23 03:25:29;;;;;;;9.15;6.38;;;;;;;16.60;71.96;101294.88;5058592;28;20061;-73
2022/08/23 03:27:54;;;;;;;9.93;6.38;;;;;;;16.57;71.63;101297.66;5056661;28;20479;-73
2022/08/23 03:30:19;;;;;;;9.52;5.93;;;;;;;16.58;72.00;101301.97;5055551;28;20033;-73
2022/08/23 03:32:45;;;;;;;8.93;6.60;;;;;;;16.55;72.22;101300.34;5058237;28;20027;-75
2022/08/23 03:35:10;;;;;;;9.13;6.90;;;;;;;16.54;72.57;101306.50;5057289;28;20059;-76
2022/08/23 03:37:36;;;;;;;11.98;7.05;;;;;;;16.53;72.59;101305.69;5055283;28;20385;-74
2022/08/23 03:40:03;;;;;;;11.48;6.60;;;;;;;16.56;72.55;101312.56;5061389;28;20085;-75
2022/08/23 03:42:29;;;;;;;8.43;6.60;;;;;;;16.57;72.81;101305.56;5058146;28;20017;-75
2022/08/23 03:44:54;;;;;;;8.85;6.78;;;;;;;16.54;72.85;101304.75;5060840;28;20036;-73
2022/08/23 03:47:19;;;;;;;8.05;6.50;;;;;;;16.54;72.84;101307.38;5057471;28;20021;-74
2022/08/23 03:49:44;;;;;;;10.30;6.63;;;;;;;16.53;72.91;101310.94;5059094;28;20021;-76
2022/08/23 03:52:10;;;;;;;8.98;6.78;;;;;;;16.53;72.79;101307.44;5056167;28;20040;-73
2022/08/23 03:54:36;;;;;;;9.63;7.03;;;;;;;16.57;72.38;101313.44;5059870;28;20024;-73
2022/08/23 03:57:06;;;;;;;10.55;7.30;;;;;;;16.54;72.79;101312.63;5057574;28;20032;-76
2022/08/23 03:59:33;;;;;;;8.65;7.20;;;;;;;16.55;73.06;101313.47;5058646;28;20459;-73
2022/08/23 04:01:59;;;;;;;10.93;6.95;;;;;;;16.56;72.97;101316.97;5058787;28;20025;-73
2022/08/23 04:04:24;;;;;;;9.90;7.35;;;;;;;16.56;73.36;101315.19;5060821;28;20032;-73
2022/08/23 04:06:49;;;;;;;8.23;7.07;;;;;;;16.58;73.38;101317.72;5054660;28;20029;-73
2022/08/23 04:09:15;;;;;;;11.48;6.90;;;;;;;16.57;73.37;101316.06;5059818;28;21908;-73
2022/08/23 04:11:41;;;;;;;8.95;6.63;;;;;;;16.58;73.40;101317.72;5039553;28;20119;-73
2022/08/23 04:14:07;;;;;;;12.40;7.50;;;;;;;16.57;73.62;101305.56;5060637;28;20031;-74
2022/08/23 04:16:37;;;;;;;9.38;7.53;;;;;;;16.56;74.42;101319.59;5056686;28;20036;-73
2022/08/23 04:19:04;;;;;;;10.48;7.28;;;;;;;16.56;73.84;101320.44;5043573;28;20154;-73
2022/08/23 04:21:30;;;;;;;11.90;7.50;;;;;;;16.57;74.06;101321.31;5058826;28;20032;-73
2022/08/23 04:23:55;;;;;;;12.93;7.57;;;;;;;16.58;73.50;101315.09;5058289;28;20058;-73
2022/08/23 04:26:21;;;;;;;10.55;7.47;;;;;;;16.59;73.84;101322.06;5059053;28;20889;-73
2022/08/23 04:28:46;;;;;;;10.63;7.43;;;;;;;16.57;74.52;101316.91;5060217;28;20028;-73
2022/08/23 04:31:12;;;;;;;9.20;7.03;;;;;;;16.59;75.16;101324.69;5060183;28;20121;-74
2022/08/23 04:33:37;;;;;;;10.32;7.07;;;;;;;16.56;75.13;101317.81;5059535;28;20475;-73
2022/08/23 04:36:03;;;;;;;8.35;7.22;;;;;;;16.57;75.62;101316.91;5060482;28;20060;-74
2022/08/23 04:38:29;;;;;;;10.00;6.57;;;;;;;16.58;76.12;101325.63;5057380;28;20070;-73
2022/08/23 04:43:40;;;;;;;14.70;7.13;;;;;;;16.60;74.95;101326.41;5057981;28;20059;-73
2022/08/23 04:46:05;;;;;;;8.93;7.07;;;;;;;16.60;75.74;101326.41;5059653;28;20051;-73
2022/08/23 04:48:31;;;;;;;9.80;6.85;;;;;;;16.61;75.16;101323.72;5057054;28;20559;-74
2022/08/23 04:50:57;;;;;;;8.45;6.88;;;;;;;16.59;76.12;101333.44;5055457;28;20548;-73
2022/08/23 04:53:22;;;;;;;9.23;7.15;;;;;;;16.58;75.72;101333.50;5056337;28;20025;-73
2022/08/23 04:55:49;;;;;;;10.45;7.68;;;;;;;16.58;75.12;101329.09;5058307;28;20116;-73
2022/08/23 04:58:17;;;;;;;9.73;7.80;;;;;;;16.59;74.73;101335.19;5055448;28;20032;-73
2022/08/23 05:00:43;;;;;;;12.00;8.05;;;;;;;16.59;74.75;101337.84;5055278;28;20078;-74
2022/08/23 05:03:08;;;;;;;10.07;7.60;;;;;;;16.59;75.11;101336.06;5055518;28;20033;-73
2022/08/23 05:05:34;;;;;;;11.63;8.05;;;;;;;16.62;74.71;101335.94;5059521;28;20021;-75
2022/08/23 05:07:59;;;;;;;10.45;8.18;;;;;;;16.64;75.14;101342.00;5055753;28;20059;-75
2022/08/23 05:10:24;;;;;;;11.63;7.70;;;;;;;16.68;75.08;101340.91;5059412;28;20399;-73
2022/08/23 05:12:50;;;;;;;10.20;7.65;;;;;;;16.71;75.31;101339.94;5061628;28;20112;-73
2022/08/23 05:15:15;;;;;;;9.60;7.68;;;;;;;16.75;75.14;101335.41;5055432;28;20029;-73
2022/08/23 05:17:40;;;;;;;10.63;7.85;;;;;;;16.77;74.87;101339.66;5059021;28;20035;-73
2022/08/23 05:20:07;;;;;;;10.07;7.68;;;;;;;16.81;75.86;101337.78;5061669;28;20028;-74
2022/08/23 05:22:35;;;;;;;10.95;7.60;;;;;;;16.84;76.89;101346.38;5061618;28;20067;-74
2022/08/23 05:25:00;;;;;;;10.20;7.63;;;;;;;16.81;77.47;101343.03;5060634;28;20372;-74
2022/08/23 05:27:25;;;;;;;9.93;7.40;;;;;;;16.82;77.47;101345.56;5059108;28;20035;-75
2022/08/23 05:29:53;;;;;;;10.77;7.55;;;;;;;16.84;77.51;101346.38;5064834;28;20020;-75
2022/08/23 05:32:19;;;;;;;10.35;7.60;;;;;;;16.88;77.20;101346.22;5060123;28;20023;-73
2022/08/23 05:34:44;;;;;;;12.40;8.10;;;;;;;16.90;76.88;101349.66;5044673;28;20420;-74
2022/08/23 05:37:09;;;;;;;12.75;8.40;;;;;;;16.89;77.04;101353.19;5062226;28;20075;-73
2022/08/23 05:39:35;;;;;;;10.70;8.05;;;;;;;16.91;76.62;101364.50;5059658;28;20032;-74
2022/08/23 05:42:00;;;;;;;12.25;8.23;;;;;;;16.93;76.82;101360.00;5063340;28;20468;-73
2022/08/23 05:44:25;;;;;;;12.60;8.70;;;;;;;16.96;77.10;101367.78;5060435;28;20028;-73
2022/08/23 05:46:50;;;;;;;13.88;9.63;;;;;;;17.03;77.61;101371.88;5060269;28;20028;-74
2022/08/23 05:49:16;;;;;;;12.50;10.05;;;;;;;17.09;77.20;101371.56;5058454;28;20037;-73
2022/08/23 05:51:41;;;;;;;11.80;10.45;;;;;;;17.16;77.04;101381.81;5057551;28;20048;-73
2022/08/23 05:54:07;;;;;;;14.38;10.85;;;;;;;17.24;77.06;101387.59;5061586;28;20103;-73
2022/08/23 05:56:36;;;;;;;14.60;12.30;;;;;;;17.32;76.14;101393.34;5059598;28;20036;-73
2022/08/23 05:59:06;;;;;;;16.30;12.07;;;;;;;17.41;76.79;101390.31;5057883;28;20046;-74
2022/08/23 06:01:33;;;;;;;14.52;12.25;;;;;;;17.51;76.02;101392.50;5059641;28;20098;-73
2022/08/23 06:04:00;;;;;;;16.88;13.07;;;;;;;17.58;76.31;101392.16;5062153;28;20043;-73
2022/08/23 06:06:25;;;;;;;15.80;12.73;;;;;;;17.62;75.12;101389.38;5060171;28;20036;-73
2022/08/23 06:08:51;;;;;;;13.32;11.93;;;;;;;17.65;75.04;101397.97;5061788;28;20407;-74
2022/08/23 06:11:23;;;;;;;15.07;11.55;;;;;;;17.71;76.23;101397.72;5061763;28;20045;-73
2022/08/23 06:13:52;;;;;;;13.95;11.38;;;;;;;17.78;77.07;101397.41;5060660;28;20029;-74
2022/08/23 06:16:25;;;;;;;13.45;11.75;;;;;;;17.82;76.53;101386.69;5055812;28;20237;-73
2022/08/23 06:18:52;;;;;;;14.02;11.45;;;;;;;17.88;76.83;101396.06;5056576;28;20422;-75
2022/08/23 06:21:18;;;;;;;13.98;11.98;;;;;;;17.92;76.07;101397.63;5059554;28;20051;-73
2022/08/23 06:23:45;;;;;;;19.70;12.82;;;;;;;17.99;76.13;101399.06;5061432;28;20704;-73
2022/08/23 06:26:14;;;;;;;16.15;12.52;;;;;;;18.04;75.81;101391.78;5055586;28;20138;-75
2022/08/23 06:28:40;;;;;;;16.67;12.45;;;;;;;18.12;75.68;101393.19;5060339;28;20471;-73
2022/08/23 06:31:05;;;;;;;16.05;11.40;;;;;;;18.18;74.99;101393.75;5058115;28;20039;-75
2022/08/23 06:33:31;;;;;;;14.65;11.43;;;;;;;18.26;74.29;101390.75;5058488;28;20028;-73
2022/08/23 06:36:06;;;;;;;14.55;12.27;;;;;;;18.31;74.13;101393.97;5060884;28;20021;-73
2022/08/23 06:38:33;;;;;;;14.00;11.60;;;;;;;18.37;73.42;101391.97;5059535;28;20025;-76
2022/08/23 06:41:04;;;;;;;18.95;13.65;;;;;;;18.47;75.60;101398.47;5058570;28;20101;-73
2022/08/23 06:43:30;;;;;;;17.55;13.65;;;;;;;18.58;74.99;101396.19;5060293;28;20036;-73
2022/08/23 06:46:10;;;;;;;16.48;14.25;;;;;;;18.68;73.84;101395.69;5058809;28;20107;-73
2022/08/23 06:48:35;;;;;;;17.08;12.48;;;;;;;18.77;71.52;101392.59;5057993;28;20161;-73
2022/08/23 06:51:01;;;;;;;15.00;11.55;;;;;;;18.86;72.39;101394.75;5056859;28;20468;-73
2022/08/23 06:53:26;;;;;;;15.52;11.65;;;;;;;18.93;71.60;101396.16;5058379;28;20025;-73
2022/08/23 06:55:53;;;;;;;14.65;12.00;;;;;;;19.02;71.75;101393.97;5060969;28;20037;-74
2022/08/23 06:58:19;;;;;;;15.60;11.00;;;;;;;19.09;71.43;101390.09;5058551;28;20487;-76
2022/08/23 07:00:44;;;;;;;17.05;11.13;;;;;;;19.14;71.08;101382.78;5058067;28;20029;-73
2022/08/23 07:03:09;;;;;;;12.63;10.90;;;;;;;19.20;71.27;101392.16;5056950;28;20032;-73
2022/08/23 07:05:35;;;;;;;12.82;9.85;;;;;;;19.22;68.54;101391.13;5057757;28;20487;-74
2022/08/23 07:08:00;;;;;;;13.88;9.40;;;;;;;19.26;68.64;101392.69;5055171;28;20774;-73
2022/08/23 07:10:25;;;;;;;14.77;8.95;;;;;;;19.31;67.59;101396.84;5057741;28;20666;-74
2022/08/23 07:12:50;;;;;;;14.27;9.48;;;;;;;19.34;67.82;101389.63;5057936;28;20024;-74
2022/08/23 07:15:16;;;;;;;11.88;9.00;;;;;;;19.41;68.33;101392.78;5057898;28;20499;-73
2022/08/23 07:17:41;;;;;;;14.70;9.02;;;;;;;19.46;67.03;101397.81;5057416;28;20031;-74
2022/08/23 07:20:07;;;;;;;14.68;9.65;;;;;;;19.49;66.37;101398.47;5057858;28;20048;-74
2022/08/23 07:22:32;;;;;;;14.38;9.70;;;;;;;19.54;65.39;101396.44;5058181;28;20156;-74
2022/08/23 07:24:57;;;;;;;14.82;10.02;;;;;;;19.60;65.94;101399.69;5058449;28;20399;-74
2022/08/23 07:27:23;;;;;;;13.48;10.02;;;;;;;19.65;65.34;101397.63;5059882;28;20033;-76
2022/08/23 07:29:49;;;;;;;12.48;9.73;;;;;;;19.70;65.88;101398.25;5059654;28;20052;-74
2022/08/23 07:32:14;;;;;;;12.13;9.27;;;;;;;19.73;65.57;101400.72;5059041;28;20035;-74
2022/08/23 07:34:39;;;;;;;15.13;10.05;;;;;;;19.79;66.43;101403.03;5059300;28;20070;-76
2022/08/23 07:37:05;;;;;;;16.52;10.38;;;;;;;19.86;67.15;101409.66;5056098;28;20480;-74
2022/08/23 07:39:31;;;;;;;13.50;10.38;;;;;;;19.95;66.82;101410.13;5056928;28;20033;-76
2022/08/23 07:41:58;;;;;;;14.38;11.02;;;;;;;19.99;65.96;101417.78;5056301;28;20039;-74
2022/08/23 07:44:23;;;;;;;14.10;10.40;;;;;;;20.05;66.31;101418.38;5056178;28;20017;-73
2022/08/23 07:46:49;;;;;;;15.07;9.73;;;;;;;20.10;65.50;101422.44;5060281;28;20070;-74
2022/08/23 07:49:14;;;;;;;13.15;9.80;;;;;;;;;;5055206;28;20498;-74
2022/08/23 07:51:44;;;;;;;12.38;9.85;;;;;;;20.20;65.16;101435.13;5057410;28;20032;-74
2022/08/23 07:54:10;;;;;;;12.23;9.00;;;;;;;20.26;64.86;101429.50;5058472;28;20063;-76
2022/08/23 07:56:36;;;;;;;13.90;9.45;;;;;;;20.30;63.73;101431.03;5061962;28;20025;-74
2022/08/23 07:59:02;;;;;;;15.23;8.88;;;;;;;20.35;63.76;101430.75;5055739;28;20089;-74
2022/08/23 08:01:29;;;;;;;12.50;8.93;;;;;;;20.40;65.28;101429.53;5057988;28;20360;-74
2022/08/23 08:03:57;;;;;;;12.95;9.13;;;;;;;20.47;65.30;101433.53;5057079;28;20024;-76
2022/08/23 08:06:28;;;;;;;12.30;8.95;;;;;;;20.54;64.49;101435.81;5057865;28;20039;-74
2022/08/23 08:08:53;;;;;;;12.83;9.53;;;;;;;20.60;64.67;101430.19;5055586;28;20032;-76
2022/08/23 08:11:21;;;;;;;14.85;9.32;;;;;;;20.64;64.22;101434.34;5055635;28;20041;-73
2022/08/23 08:13:49;;;;;;;16.83;9.05;;;;;;;20.68;63.34;101433.19;5056024;28;20025;-73
2022/08/23 08:16:25;;;;;;;13.48;8.48;;;;;;;20.76;64.50;101432.78;5057330;28;20186;-76
2022/08/23 08:18:51;;;;;;;14.15;9.32;;;;;;;20.84;65.03;101440.25;5057642;28;20368;-74
2022/08/23 08:21:17;;;;;;;13.38;9.13;;;;;;;20.89;64.86;101443.47;5055731;28;20161;-76
2022/08/23 08:23:43;;;;;;;12.02;8.70;;;;;;;20.94;61.79;101446.72;5054587;28;20384;-76
2022/08/23 08:26:08;;;;;;;13.77;8.10;;;;;;;20.99;61.05;101444.66;5054540;28;20467;-74
2022/08/23 08:28:35;;;;;;;10.55;7.30;;;;;;;21.06;61.08;101450.41;5057906;28;20024;-74
2022/08/23 08:31:01;;;;;;;12.40;7.50;;;;;;;21.11;61.06;101448.31;5052901;28;20025;-74
2022/08/23 08:33:29;;;;;;;14.85;7.70;;;;;;;21.18;62.19;101448.81;5055360;28;20154;-74
2022/08/23 08:35:55;;;;;;;10.93;7.03;;;;;;;21.26;60.78;101448.34;5054468;28;20024;-74
2022/08/23 08:38:20;;;;;;;12.25;7.35;;;;;;;21.33;63.18;101445.22;5054036;28;20044;-74
2022/08/23 08:40:52;;;;;;;13.45;7.85;;;;;;;21.40;61.21;101442.19;5054138;28;20440;-74
2022/08/23 08:43:23;;;;;;;10.35;7.57;;;;;;;21.49;62.21;101446.94;5056026;28;20391;-74
2022/08/23 08:46:07;;;;;;;;;;;;;;;21.55;62.68;101451.81;5055111;28;20107;-74
2022/08/23 08:48:44;;;;;;;11.18;7.30;;;;;;;21.61;62.73;101446.19;5058781;28;20271;-74
2022/08/23 08:51:40;;;;;;;11.60;7.32;;;;;;;21.67;62.27;101451.09;5057712;28;20068;-74
2022/08/23 08:54:10;;;;;;;11.68;7.22;;;;;;;21.72;61.01;101447.28;5061633;28;20085;-74
2022/08/23 08:56:38;;;;;;;10.48;7.28;;;;;;;21.76;61.05;101449.66;5060317;28;20029;-74
2022/08/23 08:59:14;;;;;;;11.93;7.63;;;;;;;21.81;60.89;101450.19;5059781;28;20538;-76
2022/08/23 09:01:40;;;;;;;9.98;7.20;;;;;;;21.88;60.06;101457.78;5059547;28;20024;-74
2022/08/23 09:04:05;;;;;;;12.93;8.05;;;;;;;21.94;60.78;101452.91;5058829;28;20028;-76
2022/08/23 09:06:51;;;;;;;11.57;7.43;;;;;;;22.03;61.15;101461.25;5059796;28;20041;-76
2022/08/23 09:10:01;;;;;;;9.82;6.80;;;;;;;22.10;59.85;101457.22;5062288;28;20170;-76
2022/08/23 09:12:48;;;;;;;13.95;7.70;;;;;;;22.16;59.43;101462.13;5052860;28;20048;-74
2022/08/23 09:15:32;;;;;;;12.00;7.38;;;;;;;22.19;59.53;101456.66;5057153;28;20024;-75
2022/08/23 09:18:08;;;;;;;10.75;7.05;;;;;;;22.25;59.62;101466.81;5058645;28;20450;-75
2022/08/23 09:20:34;;;;;;;10.50;7.05;;;;;;;22.31;60.05;101459.44;5057563;28;20028;-73
2022/08/23 09:23:17;;;;;;;9.93;6.75;;;;;;;22.39;59.81;101462.41;5043709;28;20032;-73
2022/08/23 09:25:53;;;;;;;7.78;5.20;;;;;;;22.45;57.36;101456.75;5058305;28;20051;-74
2022/08/23 09:28:19;;;;;;;8.82;5.00;;;;;;;22.53;57.42;101462.41;5057444;28;20040;-76
2022/08/23 09:30:55;;;;;;;9.65;5.80;;;;;;;22.63;59.21;101469.72;5058506;28;20368;-76
2022/08/23 09:33:24;;;;;;;11.57;5.45;;;;;;;22.66;56.76;101458.91;5061056;28;20036;-76
2022/08/23 09:36:04;;;;;;;9.00;4.90;;;;;;;22.72;57.94;101463.78;5055532;28;20032;-76
2022/08/23 09:38:31;;;;;;;9.38;5.18;;;;;;;22.74;56.81;101468.06;5057081;28;20024;-73
2022/08/23 09:40:57;;;;;;;10.35;5.60;;;;;;;22.78;55.92;101462.56;5058254;28;20028;-73
2022/08/23 09:43:26;;;;;;;9.20;6.00;;;;;;;22.82;55.81;101464.88;5044835;28;20028;-74
2022/08/23 09:45:51;;;;;;;11.40;6.32;;;;;;;22.84;54.83;101465.63;5041113;28;20036;-74
2022/08/23 09:48:42;;;;;;;9.90;5.80;;;;;;;22.88;57.35;101469.78;5054613;28;20741;-73
2022/08/23 09:51:07;;;;;;;9.77;4.83;;;;;;;22.93;56.56;101464.16;5058519;28;20075;-73
2022/08/23 09:53:33;;;;;;;8.13;4.95;;;;;;;23.02;55.84;101466.16;5056842;28;20045;-73
2022/08/23 09:56:15;;;;;;;8.38;4.70;;;;;;;23.10;55.82;101460.31;5059432;28;20029;-75
2022/08/23 09:58:45;;;;;;;9.40;5.30;;;;;;;23.18;54.87;101460.66;5054739;28;20039;-73
2022/08/23 10:01:18;;;;;;;7.35;4.03;;;;;;;23.24;55.89;101450.56;5058802;28;20032;-74
2022/08/23 10:03:44;;;;;;;6.75;3.72;;;;;;;23.29;54.13;101451.97;5054618;28;20529;-74
2022/08/23 10:06:27;;;;;;;5.53;3.58;;;;;;;23.35;55.18;101442.72;5056995;28;20475;-76
2022/08/23 10:08:57;;;;;;;8.18;3.78;;;;;;;23.39;53.13;101449.53;5057031;28;20071;-74
2022/08/23 10:11:26;;;;;;;9.00;3.83;;;;;;;23.43;53.59;101448.31;5059870;28;20056;-76
2022/08/23 10:13:52;;;;;;;5.68;3.90;;;;;;;23.51;53.87;101444.28;5055635;28;20020;-77
2022/08/23 10:16:23;;;;;;;7.22;4.57;;;;;;;23.58;53.23;101450.84;5058776;28;20024;-75
2022/08/23 10:18:53;;;;;;;8.23;4.88;;;;;;;23.66;54.20;101448.50;5057319;28;20484;-74
2022/08/23 10:21:24;;;;;;;12.80;4.88;;;;;;;23.68;52.62;101446.59;5054448;28;20025;-76
2022/08/23 10:23:55;;;;;;;;;;;;;;;23.73;54.82;101449.78;5057276;28;20098;-75
2022/08/23 10:26:28;;;;;;;8.07;4.30;;;;;;;23.75;52.95;101437.19;5057733;28;19919;-74
2022/08/23 10:31:57;;;;;;;7.57;3.10;;;;;;;23.90;51.64;101450.34;5052183;28;20055;-75
2022/08/23 10:34:40;;;;;;;4.35;2.58;;;;;;;23.99;51.37;101455.00;5055754;28;20025;-74
2022/08/23 10:37:31;;;;;;;4.82;2.30;;;;;;;24.10;52.50;101444.44;5033334;28;20415;-74
2022/08/23 10:40:10;;;;;;;6.05;2.20;;;;;;;24.18;51.50;101449.19;5058182;28;20029;-75
2022/08/23 10:42:46;;;;;;;5.32;2.60;;;;;;;24.21;48.50;101442.81;5058570;28;20098;-74
2022/08/23 10:45:24;;;;;;;5.70;2.55;;;;;;;24.24;50.08;101446.06;5056283;28;20020;-74
2022/08/23 10:48:13;;;;;;;4.43;2.28;;;;;;;24.25;49.41;101436.31;5055994;28;21510;-74
2022/08/23 10:50:48;;;;;;;4.55;2.03;;;;;;;24.25;49.37;101438.97;5058269;28;20034;-74
2022/08/23 10:53:16;;;;;;;5.60;2.03;;;;;;;24.28;48.95;101437.88;5052535;28;20036;-74
2022/08/23 10:56:01;;;;;;;8.07;2.05;;;;;;;24.28;48.26;101435.22;5053880;28;20054;-75
2022/08/23 10:58:31;;;;;;;5.07;1.92;;;;;;;24.30;47.40;101430.63;5052316;28;20028;-74
2022/08/23 11:00:59;;;;;;;7.38;2.13;;;;;;;24.34;48.57;101432.94;5054087;28;20104;-74
2022/08/23 11:03:50;;;;;;;7.18;2.30;;;;;;;24.40;50.01;101424.50;5054329;28;20020;-75
2022/08/23 11:06:33;;;;;;;7.15;2.30;;;;;;;24.46;49.91;101430.31;5053462;28;20036;-75
2022/08/23 11:09:08;;;;;;;5.78;2.15;;;;;;;24.51;48.20;101434.31;5059363;28;20041;-74
2022/08/23 11:12:02;;;;;;;5.28;1.75;;;;;;;24.55;49.54;101432.28;5057887;28;20052;-75
2022/08/23 11:14:30;;;;;;;5.55;2.30;;;;;;;24.54;47.30;101425.28;5049703;28;20108;-75
2022/08/23 11:17:11;;;;;;;7.05;2.13;;;;;;;24.56;49.26;101434.00;5054796;28;20506;-75
2022/08/23 11:19:47;;;;;;;3.83;2.00;;;;;;;24.59;48.57;101424.91;5038396;28;20437;-75
2022/08/23 11:22:20;;;;;;;7.85;2.10;;;;;;;24.64;47.14;101428.91;5055755;28;20075;-75
2022/08/23 11:24:53;;;;;;;5.15;1.90;;;;;;;24.72;47.55;101430.19;5056415;28;20024;-74
2022/08/23 11:27:45;;;;;;;4.55;2.10;;;;;;;24.78;48.69;101430.56;5055297;28;20032;-75
2022/08/23 11:30:42;;;;;;;6.10;2.22;;;;;;;24.86;48.14;101432.63;5056523;28;20058;-74
2022/08/23 11:33:34;;;;;;;5.53;1.92;;;;;;;24.90;46.92;101434.09;5062722;28;20032;-75
2022/08/23 11:36:09;;;;;;;7.10;1.88;;;;;;;24.98;46.89;101436.16;5057927;28;20111;-74
2022/08/23 11:38:54;;;;;;;5.18;1.85;;;;;;;25.05;47.43;101434.69;5053186;28;20035;-74
2022/08/23 11:41:24;;;;;;;7.93;2.10;;;;;;;25.14;45.86;101435.78;5045905;28;20613;-74